EST,Max TemperatureF,Mean TemperatureF,Min TemperatureF,Max Dew PointF,MeanDew PointF,Min DewpointF,Max Humidity, Mean Humidity, Min Humidity, Max Sea Level PressureIn, Mean Sea Level PressureIn, Min Sea Level PressureIn, Max VisibilityMiles, Mean VisibilityMiles, Min VisibilityMiles, Max Wind SpeedMPH, Mean Wind SpeedMPH, Max Gust SpeedMPH,PrecipitationIn, CloudCover, Events, WindDirDegrees
2012-11-1,64,48,33,32,28,27,87,48,24,29.98,29.90,29.86,10,10,10,20,6,24,0.00,0,,259
2012-11-2,75,58,41,46,37,27,76,50,31,30.02,29.96,29.89,10,10,10,21,8,30,0.00,0,,247
2012-11-3,75,57,39,48,42,36,93,62,31,30.15,30.07,30.01,10,10,10,9,2,,0.00,0,,179
2012-11-4,80,66,53,59,54,50,100,70,39,30.04,29.99,29.93,10,10,7,21,7,29,0.00,1,,253
2012-11-5,62,54,46,55,44,37,100,72,45,30.10,30.05,29.99,10,10,7,14,6,20,0.00,1,,50
2012-11-6,51,43,35,43,38,32,93,73,47,30.07,30.01,29.96,10,10,10,18,8,24,0.00,6,Rain,44
2012-11-7,46,40,35,43,39,34,100,92,87,30.02,29.96,29.92,10,9,4,8,4,,0.00,6,Rain,310
2012-11-8,64,50,35,45,36,34,100,61,32,30.18,30.12,30.03,10,8,1,12,4,17,0.00,0,,287
2012-11-9,69,50,32,39,35,32,100,65,27,30.32,30.26,30.18,10,10,7,24,2,108,0.00,0,,236
2012-11-10,71,52,33,41,37,32,100,61,29,30.41,30.35,30.29,10,10,7,0,0,,0.00,0,,-1
2012-11-11,73,55,37,59,49,36,94,73,50,30.48,30.42,30.39,10,10,10,0,0,,0.00,4,,-1
2012-11-12,75,64,53,66,62,57,100,86,65,30.39,30.31,30.22,10,8,1,0,0,,0.00,4,Rain,-1
2012-11-13,62,56,51,63,51,41,100,85,67,30.35,30.28,30.20,10,9,3,,,,0.00,8,Rain,-1
2012-11-14,53,48,44,43,39,36,93,68,51,30.43,30.36,30.29,10,10,10,,,,0.00,8,Rain,-1
2012-11-15,48,44,39,46,43,37,100,93,71,30.33,30.29,30.25,10,8,2,12,7,16,0.00,7,Rain-Thunderstorm,22
2012-11-16,59,49,39,45,42,36,100,83,51,30.36,30.31,30.28,10,10,7,10,5,,0.00,3,Rain,27
2012-11-17,57,47,37,37,34,32,93,63,38,30.43,30.39,30.36,10,10,10,15,8,21,0.00,2,,36
2012-11-18,59,54,48,46,42,34,82,68,50,30.41,30.36,30.31,10,10,10,16,12,25,0.00,7,,18
2012-11-19,68,59,50,52,48,45,94,76,56,30.32,30.25,30.20,10,10,10,15,10,21,0.00,4,Rain,15
2012-11-20,64,52,41,50,46,41,100,81,55,30.21,30.14,30.09,10,10,10,9,5,,0.00,1,,10
2012-11-21,64,50,37,50,41,36,100,75,40,30.19,30.15,30.10,10,10,7,12,3,17,0.00,0,,8
2012-11-22,66,52,37,37,36,34,93,64,32,30.29,30.23,30.19,10,10,10,14,4,16,0.00,0,,19
2012-11-23,69,51,33,50,41,32,100,66,38,30.21,30.10,30.00,10,10,10,15,4,24,0.00,1,,246
2012-11-24,59,46,33,48,33,27,87,59,36,30.14,30.07,30.00,10,10,10,16,7,24,0.00,0,,294
2012-11-25,57,42,28,30,27,23,87,61,31,30.23,30.16,30.10,10,10,10,8,3,,0.00,0,,165
2012-11-26,69,50,32,32,30,28,87,57,24,30.25,30.20,30.15,10,10,10,9,3,,0.00,0,,236
2012-11-27,53,47,41,52,41,30,100,75,44,30.23,30.19,30.12,10,9,4,10,4,17,0.00,7,Rain,242
2012-11-28,57,45,33,46,41,34,100,81,51,30.41,30.33,30.21,10,8,1,9,4,16,0.00,3,,32
2012-11-29,59,46,32,41,34,32,100,76,36,30.49,30.43,30.39,10,10,7,12,1,,0.00,0,,113
2012-11-30,64,48,32,52,43,32,100,81,48,30.43,30.38,30.32,10,10,10,6,1,,0.00,5,,131